Map

Track Data

SID SEASON NUMBER BASIN SUBBASIN NAME ISO_TIME NATURE LAT LON WMO_WIND WMO_PRES WMO_AGENCY TRACK_TYPE DIST2LAND LANDFALL IFLAG USA_AGENCY USA_ATCF_ID USA_LAT USA_LON USA_RECORD USA_STATUS USA_WIND USA_PRES USA_SSHS USA_R34_NE USA_R34_SE USA_R34_SW USA_R34_NW USA_R50_NE USA_R50_SE USA_R50_SW USA_R50_NW USA_R64_NE USA_R64_SE USA_R64_SW USA_R64_NW USA_POCI USA_ROCI USA_RMW USA_EYE TOKYO_LAT TOKYO_LON TOKYO_GRADE TOKYO_WIND TOKYO_PRES TOKYO_R50_DIR TOKYO_R50_LONG TOKYO_R50_SHORT TOKYO_R30_DIR TOKYO_R30_LONG TOKYO_R30_SHORT TOKYO_LAND CMA_LAT CMA_LON CMA_CAT CMA_WIND CMA_PRES HKO_LAT HKO_LON HKO_CAT HKO_WIND HKO_PRES NEWDELHI_LAT NEWDELHI_LON NEWDELHI_GRADE NEWDELHI_WIND NEWDELHI_PRES NEWDELHI_CI NEWDELHI_DP NEWDELHI_POCI REUNION_LAT REUNION_LON REUNION_TYPE REUNION_WIND REUNION_PRES REUNION_TNUM REUNION_CI REUNION_RMW REUNION_R34_NE REUNION_R34_SE REUNION_R34_SW REUNION_R34_NW REUNION_R50_NE REUNION_R50_SE REUNION_R50_SW REUNION_R50_NW REUNION_R64_NE REUNION_R64_SE REUNION_R64_SW REUNION_R64_NW BOM_LAT BOM_LON BOM_TYPE BOM_WIND BOM_PRES BOM_TNUM BOM_CI BOM_RMW BOM_R34_NE BOM_R34_SE BOM_R34_SW BOM_R34_NW BOM_R50_NE BOM_R50_SE BOM_R50_SW BOM_R50_NW BOM_R64_NE BOM_R64_SE BOM_R64_SW BOM_R64_NW BOM_ROCI BOM_POCI BOM_EYE BOM_POS_METHOD BOM_PRES_METHOD NADI_LAT NADI_LON NADI_CAT NADI_WIND NADI_PRES WELLINGTON_LAT WELLINGTON_LON WELLINGTON_WIND WELLINGTON_PRES DS824_LAT DS824_LON DS824_STAGE DS824_WIND DS824_PRES TD9636_LAT TD9636_LON TD9636_STAGE TD9636_WIND TD9636_PRES TD9635_LAT TD9635_LON TD9635_WIND TD9635_PRES TD9635_ROCI NEUMANN_LAT NEUMANN_LON NEUMANN_CLASS NEUMANN_WIND NEUMANN_PRES MLC_LAT MLC_LON MLC_CLASS MLC_WIND MLC_PRES USA_GUST BOM_GUST BOM_GUST_PER REUNION_GUST REUNION_GUST_PER USA_SEAHGT USA_SEARAD_NE USA_SEARAD_SE USA_SEARAD_SW USA_SEARAD_NW STORM_SPEED STORM_DIR
1927245N17340 1927 45 NA NA NOT_NAMED 1927-09-02 06:00:00 TS 16.7000 -20.0000 30 hurdat_atl main 348 348 O_____________ hurdat_atl AL021927 16.7000 -20.0000 TD 30 -1 10 258
1927245N17340 1927 45 NA NA NOT_NAMED 1927-09-02 09:00:00 TS 16.6003 -20.5101 main 385 385 P_____________ AL021927 16.6003 -20.5101 TD 32 -1 10 258
1927245N17340 1927 45 NA NA NOT_NAMED 1927-09-02 12:00:00 TS 16.5000 -21.0000 35 hurdat_atl main 425 425 O_____________ hurdat_atl AL021927 16.5000 -21.0000 TS 35 0 9 258
1927245N17340 1927 45 NA NA NOT_NAMED 1927-09-02 15:00:00 TS 16.3999 -21.4574 main 468 468 P_____________ AL021927 16.3999 -21.4574 TS 35 0 9 257
1927245N17340 1927 45 NA NA NOT_NAMED 1927-09-02 18:00:00 TS 16.3000 -21.9000 35 hurdat_atl main 504 504 O_____________ hurdat_atl AL021927 16.3000 -21.9000 TS 35 0 9 256
1927245N17340 1927 45 NA NA NOT_NAMED 1927-09-02 21:00:00 TS 16.1924 -22.3500 main 541 551 P_____________ AL021927 16.1924 -22.3500 TS 37 0 9 257
1927245N17340 1927 45 NA NA NOT_NAMED 1927-09-03 00:00:00 TS 16.1000 -22.8000 40 hurdat_atl main 589 589 O_____________ hurdat_atl AL021927 16.1000 -22.8000 TS 40 0 9 260
1927245N17340 1927 45 NA NA NOT_NAMED 1927-09-03 03:00:00 TS 16.0424 -23.2499 main 628 628 P_____________ AL021927 16.0424 -23.2499 TS 40 0 9 263
1927245N17340 1927 45 NA NA NOT_NAMED 1927-09-03 06:00:00 TS 16.0000 -23.7000 40 hurdat_atl main 680 680 O_____________ hurdat_atl AL021927 16.0000 -23.7000 TS 40 0 9 263
1927245N17340 1927 45 NA NA NOT_NAMED 1927-09-03 09:00:00 TS 15.9424 -24.1425 main 720 720 P_____________ AL021927 15.9424 -24.1425 TS 42 0 9 263
1927245N17340 1927 45 NA NA NOT_NAMED 1927-09-03 12:00:00 TS 15.9000 -24.6000 45 hurdat_atl main 773 773 O_____________ hurdat_atl AL021927 15.9000 -24.6000 TS 45 0 9 266
1927245N17340 1927 45 NA NA NOT_NAMED 1927-09-03 15:00:00 TS 15.8849 -25.0925 main 826 826 P_____________ AL021927 15.8849 -25.0925 TS 45 0 10 270
1927245N17340 1927 45 NA NA NOT_NAMED 1927-09-03 18:00:00 TS 15.9000 -25.6000 45 hurdat_atl main 879 879 O_____________ hurdat_atl AL021927 15.9000 -25.6000 TS 45 0 10 273
1927245N17340 1927 45 NA NA NOT_NAMED 1927-09-03 21:00:00 TS 15.9423 -26.0925 main 932 932 P_____________ AL021927 15.9423 -26.0925 TS 45 0 10 276
1927245N17340 1927 45 NA NA NOT_NAMED 1927-09-04 00:00:00 TS 16.0000 -26.6000 45 hurdat_atl main 986 986 O_____________ hurdat_atl AL021927 16.0000 -26.6000 TS 45 0 10 276
1927245N17340 1927 45 NA NA NOT_NAMED 1927-09-04 03:00:00 TS 16.0499 -27.1425 main 1039 1039 P_____________ AL021927 16.0499 -27.1425 TS 45 0 11 275
1927245N17340 1927 45 NA NA NOT_NAMED 1927-09-04 06:00:00 TS 16.1000 -27.7000 45 hurdat_atl main 1104 1104 O_____________ hurdat_atl AL021927 16.1000 -27.7000 TS 45 0 11 275
1927245N17340 1927 45 NA NA NOT_NAMED 1927-09-04 09:00:00 TS 16.1498 -28.2425 main 1158 1158 P_____________ AL021927 16.1498 -28.2425 TS 45 0 11 275
1927245N17340 1927 45 NA NA NOT_NAMED 1927-09-04 12:00:00 TS 16.2000 -28.8000 45 hurdat_atl main 1222 1222 O_____________ hurdat_atl AL021927 16.2000 -28.8000 TS 45 0 11 275
1927245N17340 1927 45 NA NA NOT_NAMED 1927-09-04 15:00:00 TS 16.2423 -29.3851 main 1286 1286 P_____________ AL021927 16.2423 -29.3851 TS 45 0 12 275
1927245N17340 1927 45 NA NA NOT_NAMED 1927-09-04 18:00:00 TS 16.3000 -30.0000 45 hurdat_atl main 1351 1351 O_____________ hurdat_atl AL021927 16.3000 -30.0000 TS 45 0 12 277
1927245N17340 1927 45 NA NA NOT_NAMED 1927-09-04 21:00:00 TS 16.3999 -30.6424 main 1416 1416 P_____________ AL021927 16.3999 -30.6424 TS 45 0 13 279
1927245N17340 1927 45 NA NA NOT_NAMED 1927-09-05 00:00:00 TS 16.5000 -31.3000 45 hurdat_atl main 1491 1491 O_____________ hurdat_atl AL021927 16.5000 -31.3000 TS 45 0 13 277
1927245N17340 1927 45 NA NA NOT_NAMED 1927-09-05 03:00:00 TS 16.5497 -31.9427 main 1555 1555 P_____________ AL021927 16.5497 -31.9427 TS 45 0 13 275
1927245N17340 1927 45 NA NA NOT_NAMED 1927-09-05 06:00:00 TS 16.6000 -32.6000 45 hurdat_atl main 1630 1630 O_____________ hurdat_atl AL021927 16.6000 -32.6000 TS 45 0 13 276
1927245N17340 1927 45 NA NA NOT_NAMED 1927-09-05 09:00:00 TS 16.6924 -33.3000 main 1706 1706 P_____________ AL021927 16.6924 -33.3000 TS 45 0 14 278
1927245N17340 1927 45 NA NA NOT_NAMED 1927-09-05 12:00:00 TS 16.8000 -34.0000 45 hurdat_atl main 1781 1781 O_____________ hurdat_atl AL021927 16.8000 -34.0000 TS 45 0 13 279
1927245N17340 1927 45 NA NA NOT_NAMED 1927-09-05 15:00:00 TS 16.8998 -34.6651 main 1856 1856 P_____________ AL021927 16.8998 -34.6651 TS 47 0 13 279
1927245N17340 1927 45 NA NA NOT_NAMED 1927-09-05 18:00:00 TS 17.0000 -35.3000 50 hurdat_atl main 1921 1921 O_____________ hurdat_atl AL021927 17.0000 -35.3000 TS 50 0 12 280
1927245N17340 1927 45 NA NA NOT_NAMED 1927-09-05 21:00:00 TS 17.0998 -35.9076 main 1985 1985 P_____________ AL021927 17.0998 -35.9076 TS 50 0 12 280
1927245N17340 1927 45 NA NA NOT_NAMED 1927-09-06 00:00:00 TS 17.2000 -36.5000 50 hurdat_atl main 2050 2050 O_____________ hurdat_atl AL021927 17.2000 -36.5000 TS 50 0 12 280
1927245N17340 1927 45 NA NA NOT_NAMED 1927-09-06 03:00:00 TS 17.2998 -37.0926 main 2114 2085 P_____________ AL021927 17.2998 -37.0926 TS 52 0 12 280
1927245N17340 1927 45 NA NA NOT_NAMED 1927-09-06 06:00:00 TS 17.4000 -37.7000 55 hurdat_atl main 2085 2047 O_____________ hurdat_atl AL021927 17.4000 -37.7000 TS 55 0 12 280
1927245N17340 1927 45 NA NA NOT_NAMED 1927-09-06 09:00:00 TS 17.4998 -38.3351 main 2047 2003 P_____________ AL021927 17.4998 -38.3351 TS 55 0 13 279
1927245N17340 1927 45 NA NA NOT_NAMED 1927-09-06 12:00:00 TS 17.6000 -39.0000 55 hurdat_atl main 2003 1961 O_____________ hurdat_atl AL021927 17.6000 -39.0000 TS 55 0 13 278
1927245N17340 1927 45 NA NA NOT_NAMED 1927-09-06 15:00:00 TS 17.6923 -39.6927 main 1961 1922 P_____________ AL021927 17.6923 -39.6927 TS 55 0 14 279
1927245N17340 1927 45 NA NA NOT_NAMED 1927-09-06 18:00:00 TS 17.8000 -40.4000 55 hurdat_atl main 1922 1885 O_____________ hurdat_atl AL021927 17.8000 -40.4000 TS 55 0 14 281
1927245N17340 1927 45 NA NA NOT_NAMED 1927-09-06 21:00:00 TS 17.9422 -41.1000 main 1885 1859 P_____________ AL021927 17.9422 -41.1000 TS 57 0 14 283
1927245N17340 1927 45 NA NA NOT_NAMED 1927-09-07 00:00:00 TS 18.1000 -41.8000 60 hurdat_atl main 1859 1823 O_____________ hurdat_atl AL021927 18.1000 -41.8000 TS 60 0 14 283
1927245N17340 1927 45 NA NA NOT_NAMED 1927-09-07 03:00:00 TS 18.2497 -42.4926 main 1823 1796 P_____________ AL021927 18.2497 -42.4926 TS 60 0 14 283
1927245N17340 1927 45 NA NA NOT_NAMED 1927-09-07 06:00:00 TS 18.4000 -43.2000 60 hurdat_atl main 1796 1763 O_____________ hurdat_atl AL021927 18.4000 -43.2000 TS 60 0 14 282
1927245N17340 1927 45 NA NA NOT_NAMED 1927-09-07 09:00:00 TS 18.5422 -43.9352 main 1763 1738 P_____________ AL021927 18.5422 -43.9352 TS 60 0 15 282
1927245N17340 1927 45 NA NA NOT_NAMED 1927-09-07 12:00:00 TS 18.7000 -44.7000 60 hurdat_atl main 1738 1716 O_____________ hurdat_atl AL021927 18.7000 -44.7000 TS 60 0 15 283
1927245N17340 1927 45 NA NA NOT_NAMED 1927-09-07 15:00:00 TS 18.8846 -45.4778 main 1716 1697 P_____________ AL021927 18.8846 -45.4778 TS 60 0 16 285
1927245N17340 1927 45 NA NA NOT_NAMED 1927-09-07 18:00:00 TS 19.1000 -46.3000 60 hurdat_atl main 1698 1684 O_____________ hurdat_atl AL021927 19.1000 -46.3000 TS 60 0 17 286
1927245N17340 1927 45 NA NA NOT_NAMED 1927-09-07 21:00:00 TS 19.3347 -47.1778 main 1681 1668 P_____________ AL021927 19.3347 -47.1778 TS 62 0 18 286
1927245N17340 1927 45 NA NA NOT_NAMED 1927-09-08 00:00:00 TS 19.6000 -48.1000 65 hurdat_atl main 1669 1640 O_____________ hurdat_atl AL021927 19.6000 -48.1000 HU 65 1 19 287
1927245N17340 1927 45 NA NA NOT_NAMED 1927-09-08 03:00:00 TS 19.8773 -49.0579 main 1638 1594 P_____________ AL021927 19.8773 -49.0579 HU 65 1 19 289
1927245N17340 1927 45 NA NA NOT_NAMED 1927-09-08 06:00:00 TS 20.2000 -50.0000 65 hurdat_atl main 1586 1547 O_____________ hurdat_atl AL021927 20.2000 -50.0000 HU 65 1 18 292
1927245N17340 1927 45 NA NA NOT_NAMED 1927-09-08 09:00:00 TS 20.5696 -50.8804 main 1547 1483 P_____________ AL021927 20.5696 -50.8804 HU 67 1 18 297
1927245N17340 1927 45 NA NA NOT_NAMED 1927-09-08 12:00:00 TS 21.0000 -51.7000 70 hurdat_atl main 1483 1419 O_____________ hurdat_atl AL021927 21.0000 -51.7000 HU 70 1 18 301
1927245N17340 1927 45 NA NA NOT_NAMED 1927-09-08 15:00:00 TS 21.4697 -52.4879 main 1411 1354 P_____________ AL021927 21.4697 -52.4879 HU 70 1 17 306
1927245N17340 1927 45 NA NA NOT_NAMED 1927-09-08 18:00:00 TS 22.0000 -53.2000 70 hurdat_atl main 1354 1311 O_____________ hurdat_atl AL021927 22.0000 -53.2000 HU 70 1 17 311
1927245N17340 1927 45 NA NA NOT_NAMED 1927-09-08 21:00:00 TS 22.5772 -53.8453 main 1314 1281 P_____________ AL021927 22.5772 -53.8453 HU 72 1 16 317
1927245N17340 1927 45 NA NA NOT_NAMED 1927-09-09 00:00:00 TS 23.2000 -54.4000 75 hurdat_atl main 1281 1262 O_____________ hurdat_atl AL021927 23.2000 -54.4000 HU 75 1 16 323
1927245N17340 1927 45 NA NA NOT_NAMED 1927-09-09 03:00:00 TS 23.8273 -54.8881 main 1262 1258 P_____________ AL021927 23.8273 -54.8881 HU 75 1 15 328
1927245N17340 1927 45 NA NA NOT_NAMED 1927-09-09 06:00:00 TS 24.5000 -55.3000 75 hurdat_atl main 1264 1261 O_____________ hurdat_atl AL021927 24.5000 -55.3000 HU 75 1 16 332
1927245N17340 1927 45 NA NA NOT_NAMED 1927-09-09 09:00:00 TS 25.2350 -55.7023 main 1272 1272 P_____________ AL021927 25.2350 -55.7023 HU 77 1 16 337
1927245N17340 1927 45 NA NA NOT_NAMED 1927-09-09 12:00:00 TS 26.0000 -56.0000 80 hurdat_atl main 1302 1302 O_____________ hurdat_atl AL021927 26.0000 -56.0000 HU 80 1 16 344
1927245N17340 1927 45 NA NA NOT_NAMED 1927-09-09 15:00:00 TS 26.7498 -56.1824 main 1337 1337 P_____________ AL021927 26.7498 -56.1824 HU 77 1 15 353
1927245N17340 1927 45 NA NA NOT_NAMED 1927-09-09 18:00:00 TS 27.5000 -56.2000 75 hurdat_atl main 1398 1398 O_____________ hurdat_atl AL021927 27.5000 -56.2000 HU 75 1 15 4
1927245N17340 1927 45 NA NA NOT_NAMED 1927-09-09 21:00:00 TS 28.2574 -56.0751 main 1469 1469 P_____________ AL021927 28.2574 -56.0751 HU 72 1 15 13
1927245N17340 1927 45 NA NA NOT_NAMED 1927-09-10 00:00:00 TS 29.0000 -55.8000 70 hurdat_atl main 1546 1546 O_____________ hurdat_atl AL021927 29.0000 -55.8000 HU 70 1 16 20
1927245N17340 1927 45 NA NA NOT_NAMED 1927-09-10 03:00:00 TS 29.7148 -55.4595 main 1624 1624 P_____________ AL021927 29.7148 -55.4595 HU 67 1 16 26
1927245N17340 1927 45 NA NA NOT_NAMED 1927-09-10 06:00:00 TS 30.4000 -55.0000 65 hurdat_atl main 1715 1670 O_____________ hurdat_atl AL021927 30.4000 -55.0000 HU 65 1 16 33
1927245N17340 1927 45 NA NA NOT_NAMED 1927-09-10 09:00:00 TS 31.0876 -54.4303 main 1673 1629 P_____________ AL021927 31.0876 -54.4303 HU 60 0 17 38
1927245N17340 1927 45 NA NA NOT_NAMED 1927-09-10 12:00:00 TS 31.7000 -53.8000 55 hurdat_atl main 1629 1598 O_____________ hurdat_atl AL021927 31.7000 -53.8000 TS 55 0 15 44
1927245N17340 1927 45 NA NA NOT_NAMED 1927-09-10 15:00:00 TS 32.2026 -53.1696 main 1598 1558 P_____________ AL021927 32.2026 -53.1696 TS 52 0 14 48
1927245N17340 1927 45 NA NA NOT_NAMED 1927-09-10 18:00:00 TS 32.6000 -52.6000 50 hurdat_atl main 1559 1527 O_____________ hurdat_atl AL021927 32.6000 -52.6000 TS 50 0 11 50
1927245N17340 1927 45 NA NA NOT_NAMED 1927-09-10 21:00:00 TS 32.9373 -52.1320 main 1527 1496 P_____________ AL021927 32.9373 -52.1320 TS 47 0 9 48
1927245N17340 1927 45 NA NA NOT_NAMED 1927-09-11 00:00:00 TS 33.2000 -51.8000 45 hurdat_atl main 1496 1474 O_____________ hurdat_atl AL021927 33.2000 -51.8000 TS 45 0 6 41
1927245N17340 1927 45 NA NA NOT_NAMED 1927-09-11 03:00:00 TS 33.4222 -51.6270 main 1475 1453 P_____________ AL021927 33.4222 -51.6270 TS 42 0 5 32
1927245N17340 1927 45 NA NA NOT_NAMED 1927-09-11 06:00:00 TS 33.6000 -51.5000 40 hurdat_atl main 1453 1433 O_____________ hurdat_atl AL021927 33.6000 -51.5000 TS 40 0 4 37
1927245N17340 1927 45 NA NA NOT_NAMED 1927-09-11 09:00:00 TS 33.7645 -51.3173 main 1433 1424 P_____________ AL021927 33.7645 -51.3173 TS 37 0 5 54
1927245N17340 1927 45 NA NA NOT_NAMED 1927-09-11 12:00:00 TS 33.9000 -51.0000 35 hurdat_atl main 1425 1416 O_____________ hurdat_atl AL021927 33.9000 -51.0000 TS 35 0 7 71
1927245N17340 1927 45 NA NA NOT_NAMED 1927-09-11 15:00:00 TS 34.0086 -50.4654 main 1420 1413 P_____________ AL021927 34.0086 -50.4654 TS 32 -1 10 79
1927245N17340 1927 45 NA NA NOT_NAMED 1927-09-11 18:00:00 TS 34.1000 -49.8000 30 hurdat_atl main 1419 O_____________ hurdat_atl AL021927 34.1000 -49.8000 TD 30 -1 11 81

About IBTrACS Database

This database is a web-friendly format of International Best Track Archive for Climate Stewardship (IBTrACS), a global best track data archive curated by NOAA dating back to 1842.

Updated: 2021-11-26